If you wish to contribute or participate in the discussions about articles you are invited to join SKYbrary as a registered user

 Actions

Leknes Airport

From SKYbrary Wiki

ENLK
Airport
ICAO: ENLK – IATA: LKN
Summary
Name Leknes Airport
Region Europe
Territory Norway NO.gif
Location Leknes, Nordland
Serving Leknes
Elevation 78.74 ft
78.74 ft24 m
Coordinates 68° 9' 14.18" N, 13° 36' 45.16" E
Runways
Designator Length Width Surface ROPS
3/21 878 m2,880.577 ft
0 m0 ft
ASP /


METAR
Observation ENLK 151750Z 06005KT 9999 VCSH FEW015 SCT030 01/00 Q1015
Station Leknes
Date/Time 15 October 2019 17:50:00
Wind direction 60°
Wind speed 05 kts
Lowest cloud amount few clouds
Temperature 1°C
Dew point 0°C
Humidity 93%
QNH 1015 hPa
Weather condition in vicinity: showers

Leknes Airport

ICAO: ENLK IATA: LKN

Description

Regional airport serving the town of Leknes, Lofted Islands, northern Norway.

Climatology

Subpolar Oceanic climate (Köppen climate classification Cfc) - uniform precipitation distribution, temperatures are moderated by the proximity of the ocean and warm currents - cool summers and comparatively mild winters.

Maps

Terrain

Loading map...

Airport Layout

Loading map...


Accidents & Serious Incidents at or in vicinity of ENLK

None on SKYbrary